createdAt,value
2023-01-25T00:00:54.901Z,103837.53
2023-01-25T00:03:24.444Z,103840.78
2023-01-25T00:06:00.100Z,103837.25
2023-01-25T00:08:28.149Z,103833.84
2023-01-25T00:10:58.475Z,103835.91
2023-01-25T00:13:27.068Z,103834.63
2023-01-25T00:15:55.321Z,103837.81
2023-01-25T00:18:24.800Z,103828.88
2023-01-25T00:20:53.245Z,103830.03
2023-01-25T00:23:21.297Z,103825.47
2023-01-25T00:25:49.433Z,103824.50
2023-01-25T00:28:17.404Z,103812.28
2023-01-25T00:30:45.583Z,103813.50
2023-01-25T00:36:30.793Z,103806.44
2023-01-25T00:38:59.818Z,103798.47
2023-01-25T00:41:27.950Z,103801.41
2023-01-25T00:43:55.983Z,103798.13
2023-01-25T00:46:24.787Z,103793.19
2023-01-25T00:48:54.622Z,103786.44
2023-01-25T00:51:24.638Z,103792.59
2023-01-25T00:53:53.208Z,103793.75
2023-01-25T00:56:21.311Z,103782.28
2023-01-25T00:58:49.471Z,103784.63
2023-01-25T01:01:19.766Z,103784.81
2023-01-25T01:03:47.701Z,103787.25
2023-01-25T01:06:15.598Z,103779.13
2023-01-25T01:08:44.857Z,103776.78
2023-01-25T01:11:14.136Z,103768.31
2023-01-25T01:13:42.675Z,103771.44
2023-01-25T01:16:13.910Z,103774.03
2023-01-25T01:18:44.500Z,103769.94
2023-01-25T01:21:13.977Z,103766.66
2023-01-25T01:23:42.376Z,103765.09
2023-01-25T01:26:36.419Z,103762.75
2023-01-25T01:29:08.308Z,103756.59
2023-01-25T01:31:38.573Z,103757.97
2023-01-25T01:34:14.309Z,103750.50
2023-01-25T01:36:42.426Z,103761.66
2023-01-25T01:39:10.463Z,103765.41
2023-01-25T01:41:40.391Z,103763.50
2023-01-25T01:44:17.723Z,103763.78
2023-01-25T01:46:53.846Z,103765.19
2023-01-25T01:49:27.629Z,103761.19
2023-01-25T01:52:04.281Z,103760.72
2023-01-25T01:54:41.679Z,103755.66
2023-01-25T01:57:14.418Z,103759.16
2023-01-25T01:59:47.592Z,103754.47
2023-01-25T02:02:16.129Z,103746.69
2023-01-25T02:04:48.315Z,103752.41
2023-01-25T02:07:20.767Z,103758.56
2023-01-25T02:09:51.736Z,103752.97
2023-01-25T02:12:24.167Z,103744.41
2023-01-25T02:14:53.860Z,103746.72
2023-01-25T02:17:27.665Z,103746.00
2023-01-25T02:20:05.408Z,103746.88
2023-01-25T02:22:41.920Z,103750.44
2023-01-25T02:25:14.370Z,103739.34
2023-01-25T02:27:47.090Z,103738.88
2023-01-25T02:30:15.596Z,103739.53
2023-01-25T02:32:45.042Z,103735.03
2023-01-25T02:35:21.039Z,103737.00
2023-01-25T02:37:51.512Z,103734.44
2023-01-25T02:40:21.750Z,103736.09
2023-01-25T02:42:49.765Z,103731.81
2023-01-25T02:45:22.844Z,103726.38
2023-01-25T02:47:50.992Z,103711.03
2023-01-25T02:50:19.945Z,103709.78
2023-01-25T02:52:47.992Z,103713.72
2023-01-25T02:55:16.501Z,103711.22
2023-01-25T02:57:47.485Z,103701.94
2023-01-25T03:00:17.592Z,103705.03
2023-01-25T03:02:46.552Z,103705.38
2023-01-25T03:05:14.802Z,103697.91
2023-01-25T03:07:42.864Z,103694.56
2023-01-25T03:10:13.000Z,103691.72
2023-01-25T03:12:41.844Z,103684.44
2023-01-25T03:15:11.837Z,103686.97
2023-01-25T03:17:40.083Z,103684.25
2023-01-25T03:20:08.901Z,103685.59
2023-01-25T03:22:36.938Z,103682.19
2023-01-25T03:25:07.259Z,103684.53
2023-01-25T03:27:38.184Z,103676.88
2023-01-25T03:30:14.136Z,103675.13
2023-01-25T03:32:42.930Z,103675.50
2023-01-25T03:35:16.189Z,103670.72
2023-01-25T03:37:44.856Z,103671.41
2023-01-25T03:40:14.433Z,103667.94
2023-01-25T03:42:46.360Z,103672.66
2023-01-25T03:45:16.704Z,103670.53
2023-01-25T03:47:44.965Z,103666.81
2023-01-25T03:50:13.931Z,103666.16
2023-01-25T03:52:45.573Z,103650.44
2023-01-25T03:55:14.687Z,103650.44
2023-01-25T03:57:45.221Z,103639.56
2023-01-25T04:00:15.925Z,103629.97
2023-01-25T04:02:46.688Z,103634.41
2023-01-25T04:05:18.334Z,103646.31
2023-01-25T04:07:46.797Z,103636.34
2023-01-25T04:10:17.494Z,103632.19
2023-01-25T04:12:47.876Z,103648.00
2023-01-25T04:15:18.334Z,103642.66
2023-01-25T04:17:46.719Z,103648.22
2023-01-25T04:20:25.148Z,103643.81
2023-01-25T04:22:54.302Z,103647.50
2023-01-25T04:25:26.968Z,103642.25
2023-01-25T04:27:55.198Z,103630.59
2023-01-25T04:30:24.859Z,103635.09
2023-01-25T04:32:53.764Z,103629.56
2023-01-25T04:35:28.205Z,103620.56
2023-01-25T04:37:56.995Z,103614.84
2023-01-25T04:40:30.040Z,103613.75
2023-01-25T04:42:58.467Z,103610.06
2023-01-25T04:45:28.401Z,103615.53
2023-01-25T04:47:58.283Z,103618.22
2023-01-25T04:50:27.083Z,103619.81
2023-01-25T04:52:55.688Z,103622.19
2023-01-25T04:55:24.997Z,103628.97
2023-01-25T04:57:57.776Z,103613.69
2023-01-25T05:00:25.825Z,103615.50
2023-01-25T05:02:55.514Z,103613.25
2023-01-25T05:05:23.900Z,103610.25
2023-01-25T05:07:54.570Z,103614.28
2023-01-25T05:10:22.971Z,103611.44
2023-01-25T05:13:09.676Z,103611.50
2023-01-25T05:15:38.093Z,103611.13
2023-01-25T05:18:07.709Z,103616.34
2023-01-25T05:20:36.147Z,103612.81
2023-01-25T05:23:04.432Z,103609.75
2023-01-25T05:25:50.878Z,103613.59
2023-01-25T05:28:26.379Z,103615.06
2023-01-25T05:31:14.608Z,103622.88
2023-01-25T05:33:44.582Z,103623.69
2023-01-25T05:36:13.042Z,103624.03
2023-01-25T05:38:41.214Z,103617.63
2023-01-25T05:41:11.674Z,103616.47
2023-01-25T05:43:39.820Z,103606.56
2023-01-25T05:46:09.789Z,103603.38
2023-01-25T05:48:38.030Z,103604.28
2023-01-25T05:51:07.784Z,103600.66
2023-01-25T05:53:36.202Z,103596.31
2023-01-25T05:56:08.309Z,103595.13
2023-01-25T05:58:36.531Z,103600.25
2023-01-25T06:01:06.382Z,103603.91
2023-01-25T06:03:44.081Z,103617.03
2023-01-25T06:06:13.961Z,103604.41
2023-01-25T06:08:43.971Z,103606.47
2023-01-25T06:11:13.282Z,103604.31
2023-01-25T06:13:45.727Z,103594.97
2023-01-25T06:16:14.054Z,103595.31
2023-01-25T06:18:42.593Z,103586.00
2023-01-25T06:21:24.073Z,103581.56
2023-01-25T06:23:52.107Z,103585.63
2023-01-25T06:26:20.109Z,103578.00
2023-01-25T06:28:48.100Z,103581.41
2023-01-25T06:31:19.258Z,103581.88
2023-01-25T06:33:50.679Z,103581.78
2023-01-25T06:36:23.675Z,103580.94
2023-01-25T06:38:53.013Z,103585.41
2023-01-25T06:41:21.400Z,103578.72
2023-01-25T06:43:51.725Z,103581.19
2023-01-25T06:46:20.901Z,103586.69
2023-01-25T06:48:49.148Z,103590.75
2023-01-25T06:51:17.752Z,103596.06
2023-01-25T06:53:48.487Z,103581.06
2023-01-25T06:56:18.625Z,103586.44
2023-01-25T06:58:47.424Z,103583.09
2023-01-25T07:01:19.778Z,103581.59
2023-01-25T07:03:49.709Z,103581.91
2023-01-25T07:06:18.045Z,103578.84
2023-01-25T07:08:47.760Z,103575.22
2023-01-25T07:11:18.843Z,103578.44
2023-01-25T07:13:48.338Z,103576.50
2023-01-25T07:16:19.118Z,103578.31
2023-01-25T07:18:47.508Z,103577.03
2023-01-25T07:21:17.691Z,103581.50
2023-01-25T07:23:47.171Z,103581.19
2023-01-25T07:26:18.571Z,103587.88
2023-01-25T07:28:47.311Z,103583.09
2023-01-25T07:31:16.775Z,103576.41
2023-01-25T07:33:45.607Z,103571.44
2023-01-25T07:36:14.320Z,103572.97
2023-01-25T07:38:42.494Z,103565.66
2023-01-25T07:41:13.098Z,103570.69
2023-01-25T07:43:41.234Z,103566.00
2023-01-25T07:46:14.683Z,103560.81
2023-01-25T07:48:48.139Z,103557.59
2023-01-25T07:51:23.829Z,103560.31
2023-01-25T07:53:54.161Z,103558.94
2023-01-25T07:56:25.824Z,103554.38
2023-01-25T07:58:55.107Z,103547.16
2023-01-25T08:01:25.626Z,103550.91
2023-01-25T08:03:57.785Z,103539.72
2023-01-25T08:06:27.587Z,103541.75
2023-01-25T08:08:56.493Z,103538.47
2023-01-25T08:11:29.212Z,103540.75
2023-01-25T08:13:57.492Z,103541.34
2023-01-25T08:16:27.551Z,103533.81
2023-01-25T08:18:58.498Z,103532.66
2023-01-25T08:21:30.106Z,103525.22
2023-01-25T08:23:59.743Z,103520.09
2023-01-25T08:26:29.965Z,103527.38
2023-01-25T08:28:58.376Z,103524.94
2023-01-25T08:31:28.748Z,103523.06
2023-01-25T08:33:58.276Z,103511.19
2023-01-25T08:36:28.191Z,103517.59
2023-01-25T08:38:58.907Z,103498.72
2023-01-25T08:41:29.747Z,103502.91
2023-01-25T08:43:58.524Z,103502.47
2023-01-25T08:46:30.536Z,103504.88
2023-01-25T08:49:02.552Z,103495.03
2023-01-25T08:51:33.011Z,103500.13
2023-01-25T08:54:04.978Z,103495.13
2023-01-25T08:56:34.575Z,103490.75
2023-01-25T08:59:02.833Z,103496.00
2023-01-25T09:01:30.889Z,103497.56
2023-01-25T09:03:59.414Z,103491.34
2023-01-25T09:06:28.408Z,103499.34
2023-01-25T09:08:56.752Z,103494.84
2023-01-25T09:11:25.058Z,103489.13
2023-01-25T09:13:54.823Z,103493.56
2023-01-25T09:16:29.428Z,103488.13
2023-01-25T09:18:59.111Z,103480.81
2023-01-25T09:21:27.503Z,103486.59
2023-01-25T09:24:11.981Z,103495.25
2023-01-25T09:26:46.063Z,103488.53
2023-01-25T09:29:19.507Z,103496.03
2023-01-25T09:31:48.005Z,103493.25
2023-01-25T09:34:28.198Z,103492.94
2023-01-25T09:36:56.248Z,103482.47
2023-01-25T09:39:27.928Z,103483.25
2023-01-25T09:42:24.276Z,103480.44
2023-01-25T09:45:19.560Z,103480.28
2023-01-25T09:47:55.816Z,103478.47
2023-01-25T09:50:34.200Z,103479.22
2023-01-25T09:53:22.686Z,103473.06
2023-01-25T09:55:54.585Z,103465.59
2023-01-25T09:58:29.135Z,103465.63
2023-01-25T10:01:14.491Z,103461.94
2023-01-25T10:03:49.233Z,103453.66
2023-01-25T10:06:20.479Z,103448.59
2023-01-25T10:08:56.863Z,103447.91
2023-01-25T10:11:28.195Z,103449.75
2023-01-25T10:13:57.548Z,103436.16
2023-01-25T10:16:33.203Z,103435.25
2023-01-25T10:19:19.796Z,103420.28
2023-01-25T10:21:57.502Z,103420.22
2023-01-25T10:24:38.349Z,103406.97
2023-01-25T10:27:20.420Z,103409.47
2023-01-25T10:29:49.663Z,103408.06
2023-01-25T10:32:28.036Z,103397.69
2023-01-25T10:34:59.188Z,103388.13
2023-01-25T10:37:30.059Z,103387.94
2023-01-25T10:40:02.311Z,103370.50
2023-01-25T10:42:38.203Z,103366.59
2023-01-25T10:45:13.511Z,103356.31
2023-01-25T10:47:47.867Z,103357.28
2023-01-25T10:50:45.245Z,103351.84
2023-01-25T10:53:45.012Z,103337.66
2023-01-25T10:56:22.728Z,103341.31
2023-01-25T10:58:54.406Z,103337.44
2023-01-25T11:01:28.757Z,103334.94
2023-01-25T11:03:59.384Z,103327.38
2023-01-25T11:06:35.743Z,103322.97
2023-01-25T11:09:24.286Z,103310.97
2023-01-25T11:11:58.182Z,103305.06
2023-01-25T11:14:28.339Z,103301.38
2023-01-25T11:16:58.329Z,103300.47
2023-01-25T11:19:29.758Z,103282.63
2023-01-25T11:21:58.949Z,103281.75
2023-01-25T11:24:29.265Z,103276.34
2023-01-25T11:27:18.600Z,103278.38
2023-01-25T11:29:47.960Z,103270.25
2023-01-25T11:32:22.627Z,103264.56
2023-01-25T11:34:51.955Z,103261.72
2023-01-25T11:37:46.252Z,103252.44
2023-01-25T11:40:22.514Z,103240.91
2023-01-25T11:43:04.227Z,103240.22
2023-01-25T11:46:02.814Z,103232.50
2023-01-25T11:48:51.710Z,103223.16
2023-01-25T11:51:27.326Z,103221.28
2023-01-25T11:54:08.337Z,103213.94
2023-01-25T11:56:50.516Z,103200.28
2023-01-25T11:59:39.094Z,103194.06
2023-01-25T12:02:33.017Z,103182.34
2023-01-25T12:05:21.875Z,103173.63
2023-01-25T12:08:02.008Z,103179.19
2023-01-25T12:10:38.348Z,103171.31
2023-01-25T12:13:17.814Z,103170.53
2023-01-25T12:16:07.709Z,103164.47
2023-01-25T12:19:07.052Z,103154.47
2023-01-25T12:21:51.435Z,103143.03
2023-01-25T12:24:37.594Z,103141.88
2023-01-25T12:27:19.363Z,103139.13
2023-01-25T12:29:52.231Z,103132.28
2023-01-25T12:32:27.388Z,103127.41
2023-01-25T12:35:12.761Z,103136.19
2023-01-25T12:37:44.841Z,103119.94
2023-01-25T12:40:17.993Z,103105.84
2023-01-25T12:42:53.281Z,103100.88
2023-01-25T12:45:26.606Z,103099.41
2023-01-25T12:48:01.409Z,103100.56
2023-01-25T12:50:35.979Z,103087.09
2023-01-25T12:53:08.414Z,103084.28
2023-01-25T12:55:36.396Z,103071.09
2023-01-25T12:58:16.405Z,103063.88
2023-01-25T13:00:53.398Z,103063.94
2023-01-25T13:03:32.847Z,103063.94
2023-01-25T13:06:10.675Z,103065.72
2023-01-25T13:08:49.127Z,103057.81
2023-01-25T13:11:23.773Z,103051.13
2023-01-25T13:13:52.109Z,103052.31
2023-01-25T13:16:45.277Z,103038.06
2023-01-25T13:19:42.255Z,103043.72
2023-01-25T13:22:11.745Z,103039.41
2023-01-25T13:25:09.416Z,103042.38
2023-01-25T13:27:37.956Z,103049.47
2023-01-25T13:30:28.308Z,103039.47
2023-01-25T13:32:59.312Z,103036.97
2023-01-25T13:35:32.557Z,103024.84
2023-01-25T13:38:04.947Z,103019.81
2023-01-25T13:40:36.588Z,103012.94
2023-01-25T13:43:07.561Z,103010.72
2023-01-25T13:45:39.711Z,103000.25
2023-01-25T13:48:16.699Z,103005.63
2023-01-25T13:50:50.437Z,103005.63
2023-01-25T13:53:23.982Z,103004.97
2023-01-25T13:55:55.001Z,103002.00
2023-01-25T13:58:26.272Z,102997.63
2023-01-25T14:00:56.542Z,102991.38
2023-01-25T14:03:28.227Z,102992.53
2023-01-25T14:06:02.715Z,102996.91
2023-01-25T14:08:32.425Z,102992.88
2023-01-25T14:11:01.350Z,103000.25
2023-01-25T14:13:33.699Z,102994.31
2023-01-25T14:16:04.452Z,102985.78
2023-01-25T14:18:33.585Z,102980.44
2023-01-25T14:21:16.370Z,102972.78
2023-01-25T14:23:45.269Z,102971.41
2023-01-25T14:26:20.719Z,102962.63
2023-01-25T14:28:59.620Z,102966.69
2023-01-25T14:31:35.751Z,102958.28
2023-01-25T14:34:06.157Z,102966.41
2023-01-25T14:36:36.577Z,102952.19
2023-01-25T14:39:18.409Z,102943.41
2023-01-25T14:42:00.521Z,102931.50
2023-01-25T14:44:30.887Z,102917.25
2023-01-25T14:47:23.748Z,102919.34
2023-01-25T14:49:51.844Z,102902.94
2023-01-25T14:52:25.207Z,102901.66
2023-01-25T14:54:55.543Z,102899.09
2023-01-25T14:57:33.350Z,102911.69
2023-01-25T15:00:04.971Z,102928.22
2023-01-25T15:02:40.308Z,102919.13
2023-01-25T15:05:19.726Z,102930.34
2023-01-25T15:07:51.741Z,102930.91
2023-01-25T15:10:24.166Z,102943.25
2023-01-25T15:13:12.725Z,102934.88
2023-01-25T15:15:52.871Z,102942.25
2023-01-25T15:18:46.001Z,102948.97
2023-01-25T15:21:15.698Z,102945.72
2023-01-25T15:23:47.081Z,102949.59
2023-01-25T15:26:19.932Z,102951.31
2023-01-25T15:28:49.288Z,102942.34
2023-01-25T15:31:19.922Z,102950.88
2023-01-25T15:33:48.079Z,102941.25
2023-01-25T15:36:17.722Z,102938.41
2023-01-25T15:38:47.589Z,102927.47
2023-01-25T15:41:18.413Z,102928.31
2023-01-25T15:43:47.245Z,102936.59
2023-01-25T15:46:19.014Z,102928.97
2023-01-25T15:48:48.686Z,102919.94
2023-01-25T15:51:16.807Z,102911.28
2023-01-25T15:53:46.785Z,102904.91
2023-01-25T15:56:19.143Z,102907.47
2023-01-25T15:58:51.530Z,102897.16
2023-01-25T16:01:19.936Z,102891.44
2023-01-25T16:03:47.876Z,102883.84
2023-01-25T16:06:31.641Z,102883.88
2023-01-25T16:09:00.247Z,102882.69
2023-01-25T16:11:30.019Z,102880.44
2023-01-25T16:13:59.036Z,102875.72
2023-01-25T16:16:27.147Z,102875.44
2023-01-25T16:18:55.435Z,102875.75
2023-01-25T16:21:23.625Z,102871.75
2023-01-25T16:23:51.708Z,102864.06
2023-01-25T16:26:22.700Z,102871.38
2023-01-25T16:28:52.632Z,102867.31
2023-01-25T16:31:31.742Z,102866.19
2023-01-25T16:34:01.040Z,102861.03
2023-01-25T16:36:29.672Z,102850.41
2023-01-25T16:39:04.898Z,102856.47
2023-01-25T16:41:33.872Z,102851.38
2023-01-25T16:44:03.315Z,102840.78
2023-01-25T16:46:31.733Z,102824.22
2023-01-25T16:49:00.250Z,102836.22
2023-01-25T16:51:29.494Z,102837.41
2023-01-25T16:53:59.681Z,102831.81
2023-01-25T16:56:29.292Z,102823.97
2023-01-25T16:58:58.818Z,102814.50
2023-01-25T17:01:28.466Z,102805.41
2023-01-25T17:03:57.111Z,102792.16
2023-01-25T17:06:27.093Z,102793.56
2023-01-25T17:08:58.870Z,102775.47
2023-01-25T17:11:27.695Z,102783.41
2023-01-25T17:13:58.264Z,102785.53
2023-01-25T17:16:29.720Z,102781.41
2023-01-25T17:19:00.096Z,102776.13
2023-01-25T17:21:28.700Z,102780.66
2023-01-25T17:23:58.771Z,102775.47
2023-01-25T17:26:27.944Z,102763.41
2023-01-25T17:28:57.730Z,102766.00
2023-01-25T17:31:28.084Z,102746.50
2023-01-25T17:33:58.392Z,102747.09
2023-01-25T17:36:27.356Z,102746.47
2023-01-25T17:38:55.428Z,102751.13
2023-01-25T17:41:25.285Z,102739.75
2023-01-25T17:43:54.161Z,102740.81
2023-01-25T17:46:25.523Z,102731.31
2023-01-25T17:48:54.367Z,102726.97
2023-01-25T17:51:25.158Z,102716.09
2023-01-25T17:53:53.770Z,102708.25
2023-01-25T17:56:22.026Z,102703.03
2023-01-25T17:58:51.962Z,102699.25
2023-01-25T18:01:21.862Z,102702.31
2023-01-25T18:03:52.890Z,102696.13
2023-01-25T18:06:25.050Z,102699.75
2023-01-25T18:08:55.494Z,102692.94
2023-01-25T18:11:26.013Z,102692.69
2023-01-25T18:13:56.963Z,102689.69
2023-01-25T18:16:27.321Z,102676.78
2023-01-25T18:18:59.051Z,102676.38
2023-01-25T18:21:31.684Z,102676.81
2023-01-25T18:24:02.496Z,102675.66
2023-01-25T18:26:33.380Z,102674.41
2023-01-25T18:29:07.570Z,102684.56
2023-01-25T18:31:37.158Z,102677.59
2023-01-25T18:34:05.387Z,102683.94
2023-01-25T18:36:34.835Z,102685.91
2023-01-25T18:39:03.545Z,102679.78
2023-01-25T18:41:31.611Z,102677.13
2023-01-25T18:43:59.865Z,102666.09
2023-01-25T18:46:28.269Z,102662.09
2023-01-25T18:48:57.142Z,102672.34
2023-01-25T18:51:26.239Z,102671.78
2023-01-25T18:53:55.800Z,102674.50
2023-01-25T18:56:23.977Z,102679.31
2023-01-25T18:58:53.443Z,102682.53
2023-01-25T19:01:23.686Z,102663.53
2023-01-25T19:03:52.556Z,102663.34
2023-01-25T19:06:22.693Z,102659.31
2023-01-25T19:08:54.360Z,102652.47
2023-01-25T19:11:24.885Z,102663.22
2023-01-25T19:13:53.702Z,102654.00
2023-01-25T19:16:24.573Z,102648.22
2023-01-25T19:18:54.965Z,102647.00
2023-01-25T19:21:25.170Z,102647.66
2023-01-25T19:23:54.293Z,102648.50
2023-01-25T19:26:26.167Z,102640.50
2023-01-25T19:28:55.130Z,102638.25
2023-01-25T19:31:25.341Z,102642.72
2023-01-25T19:33:56.553Z,102627.97
2023-01-25T19:36:25.424Z,102633.25
2023-01-25T19:38:53.580Z,102628.31
2023-01-25T19:41:25.628Z,102624.03
2023-01-25T19:43:55.169Z,102621.31
2023-01-25T19:46:25.387Z,102630.38
2023-01-25T19:48:54.965Z,102624.22
2023-01-25T19:51:25.063Z,102617.91
2023-01-25T19:53:58.472Z,102619.53
2023-01-25T19:56:28.384Z,102613.09
2023-01-25T19:58:56.935Z,102607.72
2023-01-25T20:01:29.353Z,102613.28
2023-01-25T20:03:59.619Z,102612.91
2023-01-25T20:06:28.151Z,102613.91
2023-01-25T20:08:57.511Z,102611.97
2023-01-25T20:11:30.001Z,102613.22
2023-01-25T20:14:00.404Z,102605.56
2023-01-25T20:16:30.748Z,102607.28
2023-01-25T20:18:59.681Z,102598.22
2023-01-25T20:21:29.687Z,102607.41
2023-01-25T20:24:01.010Z,102603.72
2023-01-25T20:26:32.501Z,102600.63
2023-01-25T20:29:01.440Z,102608.03
2023-01-25T20:31:33.551Z,102603.53
2023-01-25T20:34:05.118Z,102597.25
2023-01-25T20:36:35.829Z,102596.88
2023-01-25T20:39:05.493Z,102592.94
2023-01-25T20:41:35.851Z,102597.13
2023-01-25T20:44:08.831Z,102594.31
2023-01-25T20:46:38.953Z,102593.31
2023-01-25T20:49:09.614Z,102594.94
2023-01-25T20:51:38.536Z,102588.06
2023-01-25T20:54:07.110Z,102586.69
2023-01-25T20:56:41.128Z,102587.94
2023-01-25T20:59:10.280Z,102587.31
2023-01-25T21:01:38.622Z,102578.44
2023-01-25T21:04:09.589Z,102586.22
2023-01-25T21:06:38.849Z,102583.44
2023-01-25T21:09:07.684Z,102578.03
2023-01-25T21:11:37.542Z,102582.03
2023-01-25T21:14:06.325Z,102575.44
2023-01-25T21:16:34.434Z,102579.84
2023-01-25T21:19:06.621Z,102579.88
2023-01-25T21:21:36.868Z,102572.19
2023-01-25T21:24:05.929Z,102564.81
2023-01-25T21:26:35.929Z,102564.31
2023-01-25T21:29:07.334Z,102558.28
2023-01-25T21:31:37.315Z,102559.34
2023-01-25T21:34:08.371Z,102561.41
2023-01-25T21:36:36.395Z,102554.09
2023-01-25T21:39:05.696Z,102554.84
2023-01-25T21:41:35.060Z,102549.41
2023-01-25T21:44:21.688Z,102550.06
2023-01-25T21:50:02.773Z,102535.41
2023-01-25T21:52:31.702Z,102533.19
2023-01-25T21:54:59.755Z,102529.31
2023-01-25T21:57:27.910Z,102539.50
2023-01-25T21:59:56.091Z,102533.25
2023-01-25T22:02:25.588Z,102530.38
2023-01-25T22:04:53.819Z,102534.38
2023-01-25T22:07:22.297Z,102532.75
2023-01-25T22:09:51.652Z,102526.63
2023-01-25T22:12:19.684Z,102535.47
2023-01-25T22:14:47.683Z,102529.84
2023-01-25T22:17:15.664Z,102531.78
2023-01-25T22:19:45.690Z,102535.47
2023-01-25T22:22:23.433Z,102524.81
2023-01-25T22:24:54.008Z,102523.53
2023-01-25T22:27:33.357Z,102523.84
2023-01-25T22:30:02.271Z,102532.50
2023-01-25T22:32:31.207Z,102530.31
2023-01-25T22:35:00.703Z,102527.72
2023-01-25T22:37:28.808Z,102525.28
2023-01-25T22:39:58.498Z,102519.66
2023-01-25T22:42:26.585Z,102519.78
2023-01-25T22:44:54.839Z,102511.16
2023-01-25T22:47:22.838Z,102511.00
2023-01-25T22:49:50.781Z,102518.72
2023-01-25T22:52:20.204Z,102515.63
2023-01-25T22:54:50.190Z,102516.34
2023-01-25T22:57:18.277Z,102506.69
2023-01-25T22:59:46.265Z,102513.25
2023-01-25T23:02:14.155Z,102512.19
2023-01-25T23:04:42.121Z,102514.00
2023-01-25T23:07:18.944Z,102501.41
2023-01-25T23:09:51.569Z,102496.63
2023-01-25T23:12:20.028Z,102509.16
2023-01-25T23:14:54.336Z,102509.03
2023-01-25T23:17:42.623Z,102508.91
2023-01-25T23:20:15.130Z,102495.16
2023-01-25T23:22:43.436Z,102500.72
2023-01-25T23:25:14.173Z,102488.31
2023-01-25T23:27:42.425Z,102496.63
2023-01-25T23:30:12.641Z,102492.00
2023-01-25T23:32:49.222Z,102489.66
2023-01-25T23:35:19.357Z,102487.03
2023-01-25T23:37:48.546Z,102490.84
2023-01-25T23:40:19.024Z,102486.81
2023-01-25T23:42:47.610Z,102477.25
2023-01-25T23:45:16.506Z,102480.72
2023-01-25T23:47:44.461Z,102475.16
2023-01-25T23:50:13.807Z,102468.81
2023-01-25T23:52:41.993Z,102471.41
2023-01-25T23:55:11.077Z,102465.34
2023-01-25T23:57:40.404Z,102463.97
